Rockhill Furnace, Pennsylvania
Current Conditions -  °F | °C
As of 12:53 PM on Friday 21 Nov 2014 (Local Time) from KAOO Reporting Station
Clear Clear  
Wind Chill: 15°   Ceiling: Unl
Heat Index: 27°   Visibility: 10mi
Dew Point: 10°   Wind: 15mph
Humidity: 49%   Direction: 270°W
Pressure: 30.38"   Gusts: 23mph
Location:  40.24°N, 77.9°W
Report Text: KAOO 211753Z AUTO 27013G20KT 10SM CLR M03/M12 A3038 RMK AO2 SLP311 T10281122 11028 21072 51007
Loading
Personal Weather Stations






























Interactive Weather Map New forecast layout! Learn more

10-Day Weather Forecast

Advertisements
Track Severe Weather on mobile